createdAt,value
2018-08-11T00:00:53.934Z,4.63
2018-08-11T00:03:24.154Z,3.10
2018-08-11T00:05:54.381Z,4.07
2018-08-11T00:08:24.463Z,3.93
2018-08-11T00:10:54.064Z,3.57
2018-08-11T00:13:23.398Z,3.47
2018-08-11T00:15:53.006Z,4.60
2018-08-11T00:18:22.858Z,2.83
2018-08-11T00:20:53.300Z,3.70
2018-08-11T00:23:23.417Z,4.70
2018-08-11T00:25:53.115Z,3.80
2018-08-11T00:28:22.929Z,2.20
2018-08-11T00:30:52.445Z,2.13
2018-08-11T00:33:22.655Z,3.67
2018-08-11T00:35:52.207Z,3.60
2018-08-11T00:38:22.115Z,3.53
2018-08-11T00:40:51.787Z,3.20
2018-08-11T00:43:21.562Z,4.30
2018-08-11T00:45:51.417Z,4.67
2018-08-11T00:48:21.370Z,5.27
2018-08-11T00:50:50.809Z,3.13
2018-08-11T00:53:21.023Z,3.63
2018-08-11T00:55:50.924Z,6.00
2018-08-11T00:58:20.553Z,3.20
2018-08-11T01:00:50.326Z,3.87
2018-08-11T01:03:20.155Z,2.93
2018-08-11T01:05:49.859Z,3.90
2018-08-11T01:08:19.610Z,3.77
2018-08-11T01:10:49.559Z,3.33
2018-08-11T01:13:19.323Z,5.13
2018-08-11T01:15:49.021Z,3.77
2018-08-11T01:18:18.839Z,5.90
2018-08-11T01:20:49.269Z,4.73
2018-08-11T01:23:18.963Z,2.47
2018-08-11T01:25:48.539Z,5.40
2018-08-11T01:28:18.431Z,3.03
2018-08-11T01:30:49.427Z,4.43
2018-08-11T01:33:19.087Z,2.33
2018-08-11T01:35:49.235Z,3.90
2018-08-11T01:38:19.511Z,2.60
2018-08-11T01:40:49.395Z,4.07
2018-08-11T01:43:19.235Z,1.87
2018-08-11T01:45:48.986Z,3.07
2018-08-11T01:48:19.029Z,3.60
2018-08-11T01:50:49.327Z,3.27
2018-08-11T01:53:19.935Z,2.83
2018-08-11T01:55:49.449Z,1.90
2018-08-11T01:58:19.261Z,2.10
2018-08-11T02:00:48.876Z,2.30
2018-08-11T02:03:18.600Z,1.93
2018-08-11T02:05:48.624Z,2.57
2018-08-11T02:08:18.513Z,1.97
2018-08-11T02:10:48.695Z,2.53
2018-08-11T02:13:18.965Z,2.13
2018-08-11T02:15:48.997Z,2.13
2018-08-11T02:18:19.366Z,2.07
2018-08-11T02:20:49.004Z,2.27
2018-08-11T02:23:19.004Z,1.73
2018-08-11T02:25:49.001Z,1.67
2018-08-11T02:28:18.951Z,1.60
2018-08-11T02:30:48.839Z,4.30
2018-08-11T02:33:18.992Z,2.47
2018-08-11T02:35:49.448Z,2.70
2018-08-11T02:38:19.411Z,1.30
2018-08-11T02:40:49.081Z,2.13
2018-08-11T02:43:19.346Z,1.97
2018-08-11T02:45:49.552Z,1.90
2018-08-11T02:48:19.309Z,1.17
2018-08-11T02:50:49.268Z,1.90
2018-08-11T02:53:19.320Z,1.20
2018-08-11T02:55:49.850Z,2.77
2018-08-11T02:58:19.476Z,2.00
2018-08-11T03:00:49.324Z,2.17
2018-08-11T03:03:19.021Z,2.40
2018-08-11T03:05:49.067Z,1.57
2018-08-11T03:08:18.963Z,1.20
2018-08-11T03:10:48.921Z,3.37
2018-08-11T03:13:19.521Z,1.63
2018-08-11T03:15:49.429Z,6.33
2018-08-11T03:18:19.238Z,2.10
2018-08-11T03:20:48.502Z,1.90
2018-08-11T03:23:18.128Z,4.73
2018-08-11T03:25:47.380Z,2.53
2018-08-11T03:28:16.831Z,2.53
2018-08-11T03:30:46.452Z,2.93
2018-08-11T03:33:16.082Z,2.87
2018-08-11T03:35:46.339Z,2.07
2018-08-11T03:38:15.703Z,2.57
2018-08-11T03:40:44.823Z,1.70
2018-08-11T03:43:14.453Z,3.23
2018-08-11T03:45:43.993Z,3.23
2018-08-11T03:48:13.468Z,2.77
2018-08-11T03:50:43.047Z,2.07
2018-08-11T03:53:12.399Z,2.37
2018-08-11T03:55:41.855Z,3.37
2018-08-11T03:58:11.157Z,2.87
2018-08-11T04:00:40.948Z,2.17
2018-08-11T04:03:11.567Z,1.20
2018-08-11T04:05:41.899Z,2.17
2018-08-11T04:08:11.812Z,2.27
2018-08-11T04:10:41.642Z,2.87
2018-08-11T04:13:11.198Z,2.60
2018-08-11T04:15:40.893Z,2.87
2018-08-11T04:18:11.057Z,2.40
2018-08-11T04:20:41.826Z,2.50
2018-08-11T04:23:12.540Z,2.83
2018-08-11T04:25:42.894Z,4.23
2018-08-11T04:28:14.543Z,5.13
2018-08-11T04:30:44.768Z,5.23
2018-08-11T04:33:14.219Z,2.90
2018-08-11T04:35:44.093Z,4.63
2018-08-11T04:38:14.352Z,4.07
2018-08-11T04:40:44.805Z,3.07
2018-08-11T04:43:15.052Z,3.83
2018-08-11T04:45:47.660Z,4.37
2018-08-11T04:48:18.161Z,5.07
2018-08-11T04:50:48.717Z,4.63
2018-08-11T04:53:18.995Z,6.20
2018-08-11T04:55:49.556Z,5.87
2018-08-11T04:58:19.782Z,4.60
2018-08-11T05:00:50.496Z,4.47
2018-08-11T05:03:20.896Z,4.93
2018-08-11T05:05:51.272Z,3.50
2018-08-11T05:08:22.653Z,4.47
2018-08-11T05:10:53.592Z,5.37
2018-08-11T05:13:23.614Z,3.70
2018-08-11T05:15:53.716Z,4.97
2018-08-11T05:18:24.472Z,3.93
2018-08-11T05:20:54.915Z,4.80
2018-08-11T05:23:26.182Z,4.83
2018-08-11T05:25:57.260Z,6.43
2018-08-11T05:28:27.650Z,5.17
2018-08-11T05:30:57.964Z,5.57
2018-08-11T05:33:27.922Z,4.77
2018-08-11T05:35:58.701Z,4.00
2018-08-11T05:38:29.076Z,7.17
2018-08-11T05:40:59.930Z,4.73
2018-08-11T05:43:30.729Z,5.43
2018-08-11T05:46:01.532Z,4.80
2018-08-11T05:48:33.850Z,7.07
2018-08-11T05:51:06.490Z,3.70
2018-08-11T05:53:37.212Z,4.43
2018-08-11T05:56:07.554Z,6.83
2018-08-11T05:58:37.857Z,5.43
2018-08-11T06:01:08.808Z,4.43
2018-08-11T06:03:39.733Z,4.63
2018-08-11T06:06:10.246Z,4.87
2018-08-11T06:08:40.427Z,6.47
2018-08-11T06:11:10.976Z,6.67
2018-08-11T06:13:41.070Z,5.80
2018-08-11T06:16:12.168Z,6.03
2018-08-11T06:18:42.758Z,5.93
2018-08-11T06:21:13.707Z,7.33
2018-08-11T06:23:44.126Z,5.17
2018-08-11T06:26:14.742Z,4.23
2018-08-11T06:28:44.909Z,4.47
2018-08-11T06:31:17.080Z,3.93
2018-08-11T06:33:48.467Z,1.97
2018-08-11T06:36:19.248Z,2.60
2018-08-11T06:38:49.338Z,1.93
2018-08-11T06:41:20.256Z,3.57
2018-08-11T06:43:50.786Z,0.87
2018-08-11T06:46:21.540Z,1.40
2018-08-11T06:48:52.230Z,2.10
2018-08-11T06:51:23.149Z,1.40
2018-08-11T06:53:53.644Z,1.10
2018-08-11T06:56:24.430Z,1.20
2018-08-11T06:58:55.062Z,1.30
2018-08-11T07:01:25.452Z,0.80
2018-08-11T07:03:57.374Z,2.57
2018-08-11T07:06:27.783Z,0.97
2018-08-11T07:08:58.159Z,1.53
2018-08-11T07:11:28.320Z,1.83
2018-08-11T07:13:58.803Z,0.80
2018-08-11T07:16:29.928Z,1.20
2018-08-11T07:19:00.270Z,0.60
2018-08-11T07:21:32.567Z,0.90
2018-08-11T07:24:02.911Z,0.77
2018-08-11T07:26:33.696Z,1.33
2018-08-11T07:29:03.887Z,0.87
2018-08-11T07:31:34.346Z,1.40
2018-08-11T07:34:04.741Z,2.13
2018-08-11T07:36:35.074Z,0.60
2018-08-11T07:39:07.972Z,0.93
2018-08-11T07:41:38.748Z,1.17
2018-08-11T07:44:09.983Z,1.17
2018-08-11T07:46:41.359Z,0.93
2018-08-11T07:49:11.891Z,1.37
2018-08-11T07:51:42.349Z,1.20
2018-08-11T07:54:12.835Z,1.93
2018-08-11T07:56:43.811Z,2.40
2018-08-11T07:59:14.771Z,2.03
2018-08-11T08:01:45.281Z,0.83
2018-08-11T08:04:16.311Z,1.43
2018-08-11T08:06:48.233Z,1.10
2018-08-11T08:09:19.543Z,1.80
2018-08-11T08:11:51.084Z,2.90
2018-08-11T08:14:22.145Z,2.70
2018-08-11T08:16:52.435Z,3.53
2018-08-11T08:19:23.636Z,1.93
2018-08-11T08:21:53.799Z,2.37
2018-08-11T08:24:24.425Z,3.63
2018-08-11T08:26:55.318Z,2.53
2018-08-11T08:29:25.697Z,1.67
2018-08-11T08:31:56.525Z,1.40
2018-08-11T08:34:26.816Z,4.03
2018-08-11T08:36:57.592Z,2.57
2018-08-11T08:39:27.888Z,2.03
2018-08-11T08:41:58.812Z,1.93
2018-08-11T08:44:29.374Z,2.37
2018-08-11T08:46:59.959Z,2.60
2018-08-11T08:49:30.364Z,1.90
2018-08-11T08:52:04.272Z,2.20
2018-08-11T08:54:34.920Z,4.20
2018-08-11T08:57:06.788Z,1.97
2018-08-11T08:59:37.412Z,2.83
2018-08-11T09:02:07.972Z,3.20
2018-08-11T09:04:38.916Z,3.07
2018-08-11T09:07:08.838Z,2.93
2018-08-11T09:09:38.828Z,2.73
2018-08-11T09:12:08.913Z,3.10
2018-08-11T09:14:38.886Z,1.87
2018-08-11T09:17:08.742Z,2.73
2018-08-11T09:19:38.616Z,3.23
2018-08-11T09:22:08.506Z,2.20
2018-08-11T09:24:38.354Z,2.37
2018-08-11T09:27:07.846Z,3.40
2018-08-11T09:29:37.556Z,3.47
2018-08-11T09:32:07.809Z,2.90
2018-08-11T09:34:38.163Z,2.47
2018-08-11T09:37:08.937Z,2.23
2018-08-11T09:39:38.981Z,4.13
2018-08-11T09:42:08.630Z,3.83
2018-08-11T09:44:38.998Z,2.80
2018-08-11T09:47:10.091Z,3.70
2018-08-11T09:49:40.452Z,3.33
2018-08-11T09:52:10.705Z,2.83
2018-08-11T09:54:40.602Z,3.50
2018-08-11T09:57:11.006Z,2.33
2018-08-11T09:59:40.762Z,2.83
2018-08-11T10:02:15.531Z,2.53
2018-08-11T10:04:45.649Z,5.70
2018-08-11T10:07:16.004Z,6.23
2018-08-11T10:09:46.314Z,3.63
2018-08-11T10:12:16.135Z,2.23
2018-08-11T10:14:46.424Z,2.63
2018-08-11T10:17:16.260Z,3.63
2018-08-11T10:19:46.246Z,3.10
2018-08-11T10:22:16.532Z,3.97
2018-08-11T10:24:46.801Z,2.63
2018-08-11T10:27:16.873Z,2.37
2018-08-11T10:29:46.902Z,2.33
2018-08-11T10:32:17.020Z,2.20
2018-08-11T10:34:47.241Z,2.67
2018-08-11T10:37:17.468Z,1.73
2018-08-11T10:39:47.642Z,3.00
2018-08-11T10:42:17.628Z,3.13
2018-08-11T10:44:47.690Z,3.10
2018-08-11T10:47:18.038Z,2.17
2018-08-11T10:49:48.646Z,2.47
2018-08-11T10:52:18.963Z,2.60
2018-08-11T10:54:48.798Z,4.23
2018-08-11T10:57:19.084Z,2.23
2018-08-11T10:59:49.002Z,2.23
2018-08-11T11:02:19.138Z,5.20
2018-08-11T11:04:48.773Z,3.97
2018-08-11T11:07:18.898Z,3.00
2018-08-11T11:09:49.088Z,2.90
2018-08-11T11:12:19.088Z,3.27
2018-08-11T11:14:49.040Z,4.13
2018-08-11T11:17:19.123Z,3.13
2018-08-11T11:19:51.044Z,2.50
2018-08-11T11:22:21.029Z,2.30
2018-08-11T11:24:50.844Z,3.27
2018-08-11T11:27:21.691Z,4.63
2018-08-11T11:29:52.495Z,2.73
2018-08-11T11:32:23.758Z,3.67
2018-08-11T11:34:55.645Z,3.87
2018-08-11T11:37:26.612Z,5.63
2018-08-11T11:39:56.868Z,4.30
2018-08-11T11:42:27.208Z,2.17
2018-08-11T11:44:57.632Z,2.40
2018-08-11T11:47:28.022Z,1.77
2018-08-11T11:49:58.765Z,2.97
2018-08-11T11:52:29.115Z,2.80
2018-08-11T11:54:59.009Z,3.17
2018-08-11T11:57:28.967Z,5.20
2018-08-11T11:59:58.818Z,3.40
2018-08-11T12:02:28.988Z,5.30
2018-08-11T12:04:58.995Z,2.87
2018-08-11T12:07:28.968Z,1.97
2018-08-11T12:09:58.692Z,2.50
2018-08-11T12:12:29.094Z,4.07
2018-08-11T12:14:59.279Z,2.43
2018-08-11T12:17:29.494Z,2.30
2018-08-11T12:19:59.592Z,3.20
2018-08-11T12:22:29.537Z,2.60
2018-08-11T12:24:59.657Z,2.60
2018-08-11T12:27:29.520Z,2.03
2018-08-11T12:29:59.234Z,2.33
2018-08-11T12:32:29.393Z,1.67
2018-08-11T12:34:59.040Z,5.23
2018-08-11T12:37:28.456Z,1.50
2018-08-11T12:39:57.800Z,1.30
2018-08-11T12:42:27.664Z,3.27
2018-08-11T12:44:57.434Z,2.13
2018-08-11T12:47:27.528Z,3.00
2018-08-11T12:49:57.784Z,1.67
2018-08-11T12:52:27.604Z,2.30
2018-08-11T12:54:57.371Z,2.20
2018-08-11T12:57:27.680Z,3.07
2018-08-11T12:59:57.708Z,1.47
2018-08-11T13:02:27.685Z,2.03
2018-08-11T13:04:57.680Z,1.90
2018-08-11T13:07:27.831Z,1.93
2018-08-11T13:09:57.979Z,1.57
2018-08-11T13:12:28.065Z,3.17
2018-08-11T13:14:57.679Z,2.37
2018-08-11T13:17:27.775Z,3.40
2018-08-11T13:19:57.720Z,3.10
2018-08-11T13:22:28.137Z,2.53
2018-08-11T13:24:57.822Z,1.87
2018-08-11T13:27:27.672Z,2.13
2018-08-11T13:29:57.539Z,1.67
2018-08-11T13:32:27.594Z,1.47
2018-08-11T13:34:57.548Z,3.97
2018-08-11T13:37:27.443Z,2.50
2018-08-11T13:39:57.347Z,1.90
2018-08-11T13:42:27.348Z,3.70
2018-08-11T13:44:57.254Z,2.63
2018-08-11T13:47:27.012Z,2.37
2018-08-11T13:49:56.949Z,2.90
2018-08-11T13:52:27.084Z,2.57
2018-08-11T13:54:56.892Z,3.90
2018-08-11T13:57:26.543Z,2.50
2018-08-11T13:59:56.746Z,2.33
2018-08-11T14:02:27.641Z,4.90
2018-08-11T14:04:57.655Z,2.30
2018-08-11T14:07:27.550Z,1.50
2018-08-11T14:09:57.699Z,3.20
2018-08-11T14:12:27.627Z,3.50
2018-08-11T14:14:57.749Z,5.93
2018-08-11T14:17:27.784Z,1.37
2018-08-11T14:19:59.360Z,2.47
2018-08-11T14:22:29.558Z,1.37
2018-08-11T14:25:00.027Z,4.13
2018-08-11T14:27:30.069Z,4.10
2018-08-11T14:30:00.104Z,2.17
2018-08-11T14:32:30.014Z,2.37
2018-08-11T14:35:00.086Z,3.90
2018-08-11T14:37:30.095Z,5.00
2018-08-11T14:39:59.908Z,2.63
2018-08-11T14:42:29.497Z,6.17
2018-08-11T14:44:59.851Z,2.20
2018-08-11T14:47:29.853Z,1.63
2018-08-11T14:50:00.139Z,3.43
2018-08-11T14:52:30.123Z,3.40
2018-08-11T14:55:00.321Z,2.90
2018-08-11T14:57:31.586Z,3.43
2018-08-11T15:00:01.279Z,2.63
2018-08-11T15:02:31.507Z,4.57
2018-08-11T15:05:01.409Z,3.10
2018-08-11T15:07:30.967Z,7.50
2018-08-11T15:10:00.674Z,4.30
2018-08-11T15:12:30.513Z,2.80
2018-08-11T15:15:00.402Z,3.00
2018-08-11T15:17:30.314Z,4.30
2018-08-11T15:20:00.139Z,11.33
2018-08-11T15:22:30.110Z,6.00
2018-08-11T15:25:00.147Z,3.73
2018-08-11T15:27:29.969Z,3.00
2018-08-11T15:29:59.875Z,3.70
2018-08-11T15:32:29.909Z,3.17
2018-08-11T15:34:59.959Z,1.20
2018-08-11T15:37:30.593Z,2.00
2018-08-11T15:40:01.189Z,4.00
2018-08-11T15:42:31.362Z,1.20
2018-08-11T15:45:00.841Z,3.23
2018-08-11T15:47:31.306Z,1.13
2018-08-11T15:50:00.957Z,1.67
2018-08-11T15:52:30.473Z,1.20
2018-08-11T15:55:00.094Z,2.27
2018-08-11T15:57:37.055Z,1.93
2018-08-11T16:00:07.785Z,2.50
2018-08-11T16:02:37.914Z,2.93
2018-08-11T16:05:08.067Z,1.60
2018-08-11T16:07:38.219Z,4.07
2018-08-11T16:10:09.015Z,3.67
2018-08-11T16:12:39.125Z,2.23
2018-08-11T16:15:09.033Z,2.20
2018-08-11T16:17:39.898Z,2.90
2018-08-11T16:20:12.879Z,4.43
2018-08-11T16:22:43.027Z,3.63
2018-08-11T16:25:13.071Z,3.23
2018-08-11T16:27:43.014Z,10.87
2018-08-11T16:30:14.171Z,3.30
2018-08-11T16:32:44.603Z,4.00
2018-08-11T16:35:14.559Z,2.50
2018-08-11T16:37:45.036Z,2.77
2018-08-11T16:40:15.268Z,1.37
2018-08-11T16:42:45.172Z,3.60
2018-08-11T16:45:15.281Z,1.57
2018-08-11T16:47:45.694Z,3.70
2018-08-11T16:50:15.876Z,2.17
2018-08-11T16:52:45.529Z,1.93
2018-08-11T16:55:15.611Z,2.10
2018-08-11T16:57:45.532Z,3.33
2018-08-11T17:00:16.729Z,3.07
2018-08-11T17:02:47.039Z,3.57
2018-08-11T17:05:17.161Z,1.30
2018-08-11T17:07:47.667Z,4.97
2018-08-11T17:10:17.919Z,2.50
2018-08-11T17:12:48.713Z,3.10
2018-08-11T17:15:18.999Z,2.80
2018-08-11T17:17:49.281Z,3.40
2018-08-11T17:20:20.088Z,6.33
2018-08-11T17:22:51.033Z,1.73
2018-08-11T17:25:21.224Z,5.93
2018-08-11T17:27:51.939Z,3.33
2018-08-11T17:30:22.388Z,4.17
2018-08-11T17:32:54.113Z,5.67
2018-08-11T17:35:25.536Z,2.63
2018-08-11T17:37:56.504Z,2.43
2018-08-11T17:40:27.136Z,2.73
2018-08-11T17:42:57.964Z,4.47
2018-08-11T17:45:34.598Z,2.57
2018-08-11T17:48:06.739Z,1.93
2018-08-11T17:50:38.053Z,8.47
2018-08-11T17:53:10.322Z,1.90
2018-08-11T17:55:41.639Z,3.53
2018-08-11T17:58:12.497Z,2.87
2018-08-11T18:00:42.921Z,2.73
2018-08-11T18:03:13.474Z,3.33
2018-08-11T18:05:43.960Z,5.13
2018-08-11T18:08:14.120Z,2.80
2018-08-11T18:10:44.614Z,3.73
2018-08-11T18:13:15.398Z,3.77
2018-08-11T18:15:45.612Z,2.60
2018-08-11T18:18:15.602Z,4.73
2018-08-11T18:20:45.623Z,3.97
2018-08-11T18:23:15.710Z,4.57
2018-08-11T18:25:45.560Z,4.23
2018-08-11T18:28:15.701Z,4.00
2018-08-11T18:30:46.302Z,2.17
2018-08-11T18:33:15.872Z,2.20
2018-08-11T18:35:45.454Z,4.20
2018-08-11T18:38:15.600Z,3.10
2018-08-11T18:40:45.362Z,3.00
2018-08-11T18:43:15.454Z,2.93
2018-08-11T18:45:44.967Z,3.87
2018-08-11T18:48:14.667Z,6.73
2018-08-11T18:50:44.050Z,2.00
2018-08-11T18:53:13.489Z,2.40
2018-08-11T18:55:42.821Z,2.87
2018-08-11T18:58:12.145Z,2.73
2018-08-11T19:00:41.447Z,5.50
2018-08-11T19:03:10.766Z,3.83
2018-08-11T19:05:39.870Z,2.53
2018-08-11T19:08:09.237Z,2.40
2018-08-11T19:10:38.335Z,1.60
2018-08-11T19:13:07.776Z,3.20
2018-08-11T19:15:37.163Z,2.30
2018-08-11T19:18:06.745Z,3.93
2018-08-11T19:20:35.906Z,5.40
2018-08-11T19:23:05.425Z,3.80
2018-08-11T19:25:34.716Z,2.67
2018-08-11T19:28:04.284Z,4.20
2018-08-11T19:30:33.566Z,3.53
2018-08-11T19:33:03.070Z,2.13
2018-08-11T19:35:32.631Z,3.37
2018-08-11T19:38:02.292Z,2.87
2018-08-11T19:40:32.351Z,2.83
2018-08-11T19:43:02.383Z,2.27
2018-08-11T19:45:32.762Z,5.70
2018-08-11T19:48:02.494Z,3.03
2018-08-11T19:50:31.824Z,2.27
2018-08-11T19:53:01.268Z,1.33
2018-08-11T19:55:30.844Z,4.73
2018-08-11T19:58:00.425Z,6.47
2018-08-11T20:00:29.892Z,3.30
2018-08-11T20:03:00.243Z,3.27
2018-08-11T20:05:30.122Z,3.00
2018-08-11T20:07:59.869Z,3.23
2018-08-11T20:10:29.929Z,2.53
2018-08-11T20:12:59.746Z,4.67
2018-08-11T20:15:29.387Z,2.70
2018-08-11T20:17:59.231Z,4.97
2018-08-11T20:20:29.249Z,2.77
2018-08-11T20:22:59.768Z,3.33
2018-08-11T20:25:29.986Z,2.77
2018-08-11T20:27:59.691Z,5.00
2018-08-11T20:30:37.367Z,3.37
2018-08-11T20:33:07.364Z,2.87
2018-08-11T20:35:37.588Z,4.40
2018-08-11T20:38:07.866Z,6.90
2018-08-11T20:40:38.271Z,5.27
2018-08-11T20:43:08.011Z,4.93
2018-08-11T20:45:37.546Z,6.57
2018-08-11T20:48:07.629Z,6.07
2018-08-11T20:50:37.674Z,5.10
2018-08-11T20:53:07.606Z,4.50
2018-08-11T20:55:36.898Z,7.87
2018-08-11T20:58:06.490Z,9.13
2018-08-11T21:00:36.292Z,7.60
2018-08-11T21:03:07.915Z,11.33
2018-08-11T21:05:37.542Z,7.23
2018-08-11T21:08:07.430Z,9.40
2018-08-11T21:10:37.466Z,11.13
2018-08-11T21:13:07.396Z,10.77
2018-08-11T21:15:36.958Z,9.93
2018-08-11T21:18:06.763Z,12.70
2018-08-11T21:20:36.489Z,13.60
2018-08-11T21:23:06.335Z,13.63
2018-08-11T21:25:36.082Z,12.93
2018-08-11T21:28:05.984Z,9.30
2018-08-11T21:30:36.098Z,6.40
2018-08-11T21:33:05.834Z,6.60
2018-08-11T21:35:35.455Z,7.07
2018-08-11T21:38:05.548Z,8.83
2018-08-11T21:40:35.652Z,57.17
2018-08-11T21:43:05.644Z,40.73
2018-08-11T21:45:35.186Z,29.00
2018-08-11T21:48:05.065Z,21.67
2018-08-11T21:50:34.775Z,17.47
2018-08-11T21:53:04.629Z,8.63
2018-08-11T21:55:34.692Z,7.20
2018-08-11T21:58:04.729Z,6.73
2018-08-11T22:00:35.707Z,5.33
2018-08-11T22:03:06.846Z,5.17
2018-08-11T22:05:37.185Z,6.27
2018-08-11T22:08:07.800Z,5.13
2018-08-11T22:10:37.420Z,4.97
2018-08-11T22:13:07.220Z,4.10
2018-08-11T22:15:36.839Z,4.97
2018-08-11T22:18:07.026Z,7.77
2018-08-11T22:20:37.212Z,9.47
2018-08-11T22:23:08.293Z,11.00
2018-08-11T22:25:38.198Z,17.27
2018-08-11T22:28:09.049Z,13.30
2018-08-11T22:30:40.053Z,15.40
2018-08-11T22:33:09.752Z,14.17
2018-08-11T22:35:39.930Z,14.40
2018-08-11T22:38:10.600Z,13.03
2018-08-11T22:40:40.107Z,6.90
2018-08-11T22:43:09.704Z,8.43
2018-08-11T22:45:39.397Z,2.77
2018-08-11T22:48:08.952Z,5.10
2018-08-11T22:50:39.198Z,5.93
2018-08-11T22:53:09.003Z,3.27
2018-08-11T22:55:38.516Z,3.10
2018-08-11T22:58:08.371Z,4.87
2018-08-11T23:00:38.464Z,3.03
2018-08-11T23:03:08.296Z,3.37
2018-08-11T23:05:38.170Z,3.27
2018-08-11T23:08:07.774Z,3.90
2018-08-11T23:10:37.471Z,2.97
2018-08-11T23:13:07.016Z,2.50
2018-08-11T23:15:36.823Z,5.47
2018-08-11T23:18:06.802Z,5.37
2018-08-11T23:20:36.642Z,4.70
2018-08-11T23:23:06.474Z,2.90
2018-08-11T23:25:36.116Z,3.90
2018-08-11T23:28:05.713Z,4.13
2018-08-11T23:30:35.710Z,2.73
2018-08-11T23:33:05.987Z,4.53
2018-08-11T23:35:35.956Z,3.60
2018-08-11T23:38:05.723Z,4.17
2018-08-11T23:40:35.893Z,5.00
2018-08-11T23:43:06.594Z,4.13
2018-08-11T23:45:36.553Z,4.50
2018-08-11T23:48:06.821Z,11.10
2018-08-11T23:50:37.668Z,17.87
2018-08-11T23:53:07.945Z,16.37
2018-08-11T23:55:37.995Z,9.50
2018-08-11T23:58:07.601Z,9.23
